createdAt,value
2023-01-23T00:01:39.693Z,79.80
2023-01-23T00:04:08.042Z,56.40
2023-01-23T00:06:35.936Z,52.80
2023-01-23T00:09:04.372Z,33.17
2023-01-23T00:11:34.497Z,44.38
2023-01-23T00:14:03.828Z,64.55
2023-01-23T00:16:33.927Z,65.28
2023-01-23T00:19:01.964Z,69.30
2023-01-23T00:21:31.100Z,72.68
2023-01-23T00:24:01.485Z,64.68
2023-01-23T00:26:33.758Z,117.00
2023-01-23T00:29:02.021Z,55.60
2023-01-23T00:31:33.045Z,82.45
2023-01-23T00:34:04.051Z,59.40
2023-01-23T00:36:36.733Z,77.53
2023-01-23T00:39:08.637Z,96.25
2023-01-23T00:41:37.834Z,82.32
2023-01-23T00:44:05.942Z,54.33
2023-01-23T00:46:34.884Z,60.45
2023-01-23T00:49:02.875Z,40.05
2023-01-23T00:51:30.950Z,47.88
2023-01-23T00:53:58.843Z,47.17
2023-01-23T00:56:26.823Z,34.70
2023-01-23T00:58:56.982Z,30.33
2023-01-23T01:01:26.005Z,39.83
2023-01-23T01:03:54.475Z,39.33
2023-01-23T01:06:22.730Z,31.27
2023-01-23T01:08:51.545Z,30.00
2023-01-23T01:11:22.239Z,29.05
2023-01-23T01:13:50.438Z,32.92
2023-01-23T01:16:20.731Z,26.92
2023-01-23T01:18:48.634Z,28.38
2023-01-23T01:21:17.667Z,35.63
2023-01-23T01:23:46.652Z,31.45
2023-01-23T01:26:15.049Z,29.80
2023-01-23T01:28:43.863Z,31.23
2023-01-23T01:31:15.165Z,30.98
2023-01-23T01:33:45.511Z,35.88
2023-01-23T01:36:17.840Z,34.80
2023-01-23T01:38:48.767Z,32.50
2023-01-23T01:41:17.940Z,30.35
2023-01-23T01:43:46.660Z,29.45
2023-01-23T01:46:22.716Z,36.15
2023-01-23T01:49:07.209Z,30.08
2023-01-23T01:51:40.241Z,29.73
2023-01-23T01:54:28.725Z,33.65
2023-01-23T01:57:03.446Z,33.13
2023-01-23T01:59:36.303Z,34.13
2023-01-23T02:02:13.234Z,31.67
2023-01-23T02:04:48.373Z,39.83
2023-01-23T02:07:26.983Z,35.10
2023-01-23T02:09:56.334Z,35.33
2023-01-23T02:12:26.814Z,36.08
2023-01-23T02:14:55.102Z,33.65
2023-01-23T02:17:23.226Z,35.80
2023-01-23T02:20:04.234Z,35.78
2023-01-23T02:22:45.598Z,37.75
2023-01-23T02:25:29.576Z,34.08
2023-01-23T02:27:59.537Z,34.78
2023-01-23T02:30:27.880Z,33.33
2023-01-23T02:33:10.407Z,34.88
2023-01-23T02:35:38.818Z,36.25
2023-01-23T02:38:10.868Z,42.22
2023-01-23T02:40:43.065Z,32.83
2023-01-23T02:43:28.331Z,49.03
2023-01-23T02:46:03.114Z,65.25
2023-01-23T02:48:31.373Z,112.70
2023-01-23T02:51:01.489Z,67.85
2023-01-23T02:53:30.591Z,77.50
2023-01-23T02:56:00.802Z,84.70
2023-01-23T02:58:47.377Z,77.82
2023-01-23T03:01:15.400Z,91.25
2023-01-23T03:03:43.408Z,141.15
2023-01-23T03:06:12.557Z,136.63
2023-01-23T03:08:47.409Z,105.28
2023-01-23T03:11:17.903Z,111.15
2023-01-23T03:13:48.775Z,70.18
2023-01-23T03:16:16.994Z,108.38
2023-01-23T03:18:54.011Z,166.07
2023-01-23T03:21:22.417Z,124.32
2023-01-23T03:23:50.447Z,80.38
2023-01-23T03:26:19.318Z,125.68
2023-01-23T03:29:07.716Z,183.88
2023-01-23T03:31:36.064Z,131.95
2023-01-23T03:34:04.018Z,142.40
2023-01-23T03:36:37.236Z,133.23
2023-01-23T03:39:24.778Z,102.13
2023-01-23T03:41:54.014Z,168.90
2023-01-23T03:44:24.881Z,113.22
2023-01-23T03:46:53.805Z,194.57
2023-01-23T03:49:24.540Z,129.68
2023-01-23T03:52:00.054Z,88.00
2023-01-23T03:54:31.431Z,150.23
2023-01-23T03:56:59.357Z,70.13
2023-01-23T03:59:51.479Z,242.82
2023-01-23T04:02:22.061Z,178.70
2023-01-23T04:04:49.950Z,112.57
2023-01-23T04:07:18.829Z,74.15
2023-01-23T04:09:46.787Z,144.55
2023-01-23T04:12:15.021Z,89.20
2023-01-23T04:14:46.014Z,102.88
2023-01-23T04:17:17.070Z,82.65
2023-01-23T04:19:45.076Z,238.95
2023-01-23T04:22:12.974Z,174.82
2023-01-23T04:24:46.841Z,154.48
2023-01-23T04:27:14.855Z,282.67
2023-01-23T04:29:42.923Z,334.35
2023-01-23T04:32:11.068Z,158.98
2023-01-23T04:34:46.537Z,82.25
2023-01-23T04:37:15.231Z,192.25
2023-01-23T04:39:43.374Z,104.10
2023-01-23T04:42:11.529Z,87.60
2023-01-23T04:44:50.622Z,189.52
2023-01-23T04:47:37.713Z,111.18
2023-01-23T04:50:13.660Z,108.95
2023-01-23T04:52:45.143Z,47.05
2023-01-23T04:55:13.839Z,70.70
2023-01-23T04:57:42.308Z,38.65
2023-01-23T05:00:23.528Z,69.35
2023-01-23T05:02:52.232Z,69.93
2023-01-23T05:05:21.899Z,42.45
2023-01-23T05:07:53.446Z,68.63
2023-01-23T05:10:22.150Z,62.00
2023-01-23T05:12:50.857Z,63.55
2023-01-23T05:15:21.091Z,104.55
2023-01-23T05:17:49.553Z,58.13
2023-01-23T05:20:18.033Z,114.40
2023-01-23T05:22:53.071Z,47.50
2023-01-23T05:25:29.357Z,89.47
2023-01-23T05:27:59.843Z,90.03
2023-01-23T05:30:27.826Z,52.72
2023-01-23T05:33:07.777Z,38.53
2023-01-23T05:35:37.416Z,44.53
2023-01-23T05:38:06.807Z,32.55
2023-01-23T05:40:35.121Z,69.25
2023-01-23T05:43:21.540Z,116.47
2023-01-23T05:46:07.960Z,65.38
2023-01-23T05:48:50.986Z,151.52
2023-01-23T05:51:31.336Z,67.38
2023-01-23T05:54:02.538Z,83.85
2023-01-23T05:56:31.449Z,165.50
2023-01-23T05:59:18.025Z,184.07
2023-01-23T06:02:16.090Z,171.60
2023-01-23T06:05:19.670Z,58.67
2023-01-23T06:08:01.565Z,64.00
2023-01-23T06:10:34.083Z,172.02
2023-01-23T06:13:02.077Z,126.07
2023-01-23T06:15:30.230Z,133.02
2023-01-23T06:18:01.124Z,182.55
2023-01-23T06:20:29.127Z,161.52
2023-01-23T06:22:57.819Z,231.77
2023-01-23T06:25:27.525Z,251.40
2023-01-23T06:27:59.415Z,177.57
2023-01-23T06:30:30.273Z,237.35
2023-01-23T06:32:58.447Z,195.80
2023-01-23T06:35:33.940Z,213.85
2023-01-23T06:38:01.873Z,181.80
2023-01-23T06:40:30.335Z,125.53
2023-01-23T06:43:15.355Z,178.60
2023-01-23T06:45:45.272Z,250.63
2023-01-23T06:48:13.461Z,147.68
2023-01-23T06:50:44.545Z,181.77
2023-01-23T06:53:16.409Z,185.35
2023-01-23T06:55:46.519Z,118.68
2023-01-23T06:58:17.132Z,115.28
2023-01-23T07:00:45.288Z,221.82
2023-01-23T07:03:27.184Z,262.70
2023-01-23T07:05:55.209Z,233.20
2023-01-23T07:08:23.156Z,245.98
2023-01-23T07:10:51.640Z,79.05
2023-01-23T07:13:21.331Z,114.90
2023-01-23T07:15:51.390Z,112.05
2023-01-23T07:18:19.441Z,185.63
2023-01-23T07:20:49.657Z,125.20
2023-01-23T07:23:18.372Z,197.02
2023-01-23T07:25:46.635Z,160.02
2023-01-23T07:28:15.109Z,147.05
2023-01-23T07:30:44.365Z,211.57
2023-01-23T07:33:13.471Z,83.50
2023-01-23T07:35:41.486Z,270.83
2023-01-23T07:38:09.358Z,220.50
2023-01-23T07:40:38.889Z,99.72
2023-01-23T07:43:06.839Z,238.27
2023-01-23T07:45:34.867Z,202.55
2023-01-23T07:48:04.818Z,150.35
2023-01-23T07:50:32.703Z,166.60
2023-01-23T07:53:01.005Z,187.90
2023-01-23T07:55:29.175Z,132.23
2023-01-23T07:57:57.202Z,130.63
2023-01-23T08:00:29.211Z,141.35
2023-01-23T08:02:58.106Z,143.18
2023-01-23T08:05:27.635Z,102.78
2023-01-23T08:08:11.355Z,143.45
2023-01-23T08:10:39.806Z,125.20
2023-01-23T08:13:07.936Z,90.35
2023-01-23T08:15:35.818Z,147.77
2023-01-23T08:18:03.695Z,117.75
2023-01-23T08:20:32.986Z,128.05
2023-01-23T08:23:02.240Z,153.48
2023-01-23T08:25:31.239Z,155.15
2023-01-23T08:27:59.506Z,170.48
2023-01-23T08:30:27.378Z,148.48
2023-01-23T08:32:55.327Z,108.20
2023-01-23T08:35:23.302Z,112.72
2023-01-23T08:37:52.667Z,104.28
2023-01-23T08:40:21.381Z,104.70
2023-01-23T08:42:49.411Z,106.13
2023-01-23T08:45:17.550Z,116.22
2023-01-23T08:47:45.420Z,111.18
2023-01-23T08:50:16.605Z,111.60
2023-01-23T08:52:44.832Z,181.77
2023-01-23T08:55:14.141Z,167.95
2023-01-23T08:57:42.357Z,147.73
2023-01-23T09:00:12.689Z,172.52
2023-01-23T09:02:40.560Z,202.32
2023-01-23T09:05:09.982Z,99.80
2023-01-23T09:07:38.049Z,173.02
2023-01-23T09:10:07.917Z,187.32
2023-01-23T09:12:37.271Z,98.05
2023-01-23T09:15:05.848Z,132.75
2023-01-23T09:17:33.739Z,132.32
2023-01-23T09:20:01.775Z,114.22
2023-01-23T09:22:29.644Z,181.18
2023-01-23T09:24:57.858Z,202.52
2023-01-23T09:27:26.060Z,225.18
2023-01-23T09:29:55.987Z,119.78
2023-01-23T09:32:23.871Z,139.10
2023-01-23T09:34:51.764Z,155.77
2023-01-23T09:37:20.073Z,111.07
2023-01-23T09:39:48.046Z,207.38
2023-01-23T09:42:21.799Z,160.52
2023-01-23T09:44:58.032Z,197.15
2023-01-23T09:47:33.750Z,134.70
2023-01-23T09:50:08.904Z,93.60
2023-01-23T09:52:46.720Z,151.98
2023-01-23T09:55:24.051Z,208.00
2023-01-23T09:57:56.340Z,153.35
2023-01-23T10:00:29.964Z,168.13
2023-01-23T10:02:59.140Z,186.88
2023-01-23T10:05:36.115Z,174.82
2023-01-23T10:08:22.741Z,242.23
2023-01-23T10:11:01.020Z,217.32
2023-01-23T10:13:52.217Z,130.90
2023-01-23T10:16:49.886Z,168.43
2023-01-23T10:19:39.111Z,91.00
2023-01-23T10:22:26.054Z,118.30
2023-01-23T10:24:57.897Z,99.28
2023-01-23T10:27:34.559Z,128.65
2023-01-23T10:30:19.068Z,166.18
2023-01-23T10:32:56.923Z,94.00
2023-01-23T10:35:35.848Z,96.68
2023-01-23T10:38:21.350Z,182.00
2023-01-23T10:41:07.705Z,127.38
2023-01-23T10:43:37.066Z,132.38
2023-01-23T10:46:12.899Z,89.13
2023-01-23T10:48:46.790Z,141.15
2023-01-23T10:51:44.651Z,123.75
2023-01-23T10:54:31.216Z,127.20
2023-01-23T10:57:02.838Z,114.55
2023-01-23T10:59:36.544Z,137.23
2023-01-23T11:02:22.186Z,159.75
2023-01-23T11:04:54.818Z,138.05
2023-01-23T11:07:26.940Z,125.57
2023-01-23T11:09:59.296Z,190.07
2023-01-23T11:12:29.472Z,94.32
2023-01-23T11:15:22.522Z,113.57
2023-01-23T11:17:52.539Z,151.20
2023-01-23T11:20:30.704Z,133.88
2023-01-23T11:23:06.992Z,112.27
2023-01-23T11:25:39.081Z,124.32
2023-01-23T11:28:23.697Z,144.13
2023-01-23T11:31:11.863Z,125.28
2023-01-23T11:33:52.529Z,124.80
2023-01-23T11:36:49.409Z,107.68
2023-01-23T11:39:41.134Z,131.48
2023-01-23T11:42:12.019Z,114.95
2023-01-23T11:44:46.479Z,167.38
2023-01-23T11:47:37.070Z,109.15
2023-01-23T11:50:30.289Z,117.85
2023-01-23T11:53:12.385Z,82.63
2023-01-23T11:56:29.753Z,137.30
2023-01-23T11:59:19.656Z,140.18
2023-01-23T12:02:06.837Z,111.70
2023-01-23T12:05:10.098Z,145.05
2023-01-23T12:07:51.932Z,142.27
2023-01-23T12:10:30.899Z,145.80
2023-01-23T12:13:25.134Z,116.97
2023-01-23T12:16:15.132Z,94.35
2023-01-23T12:19:06.433Z,68.72
2023-01-23T12:21:43.732Z,97.22
2023-01-23T12:24:27.984Z,117.10
2023-01-23T12:27:07.249Z,87.63
2023-01-23T12:30:13.333Z,116.50
2023-01-23T12:33:09.156Z,110.80
2023-01-23T12:35:54.885Z,124.78
2023-01-23T12:38:32.152Z,100.82
2023-01-23T12:41:21.521Z,127.13
2023-01-23T12:44:01.070Z,110.97
2023-01-23T12:46:37.728Z,85.15
2023-01-23T12:49:22.372Z,125.05
2023-01-23T12:51:58.445Z,121.68
2023-01-23T12:54:41.856Z,139.23
2023-01-23T12:57:13.446Z,112.65
2023-01-23T12:59:59.930Z,92.60
2023-01-23T13:02:41.386Z,58.90
2023-01-23T13:05:23.040Z,146.93
2023-01-23T13:08:01.624Z,76.45
2023-01-23T13:11:18.821Z,84.53
2023-01-23T13:13:47.754Z,63.25
2023-01-23T13:16:19.667Z,82.80
2023-01-23T13:19:13.686Z,101.63
2023-01-23T13:22:04.745Z,142.88
2023-01-23T13:25:04.024Z,129.93
2023-01-23T13:27:42.139Z,173.68
2023-01-23T13:30:44.511Z,100.10
2023-01-23T13:33:51.552Z,208.73
2023-01-23T13:36:32.881Z,134.68
2023-01-23T13:39:22.466Z,130.93
2023-01-23T13:41:53.981Z,116.80
2023-01-23T13:44:35.772Z,105.05
2023-01-23T14:22:55.965Z,48.17
2023-01-23T14:25:24.541Z,55.28
2023-01-23T14:28:04.563Z,43.28
2023-01-23T14:30:32.545Z,42.10
2023-01-23T14:33:00.652Z,45.17
2023-01-23T14:35:31.439Z,52.13
2023-01-23T14:38:06.074Z,41.93
2023-01-23T14:40:49.315Z,51.75
2023-01-23T14:43:23.291Z,39.60
2023-01-23T14:46:01.206Z,50.23
2023-01-23T14:48:30.598Z,57.60
2023-01-23T14:51:10.225Z,38.90
2023-01-23T14:53:43.264Z,42.20
2023-01-23T14:56:14.850Z,41.08
2023-01-23T14:58:43.614Z,44.42
2023-01-23T15:01:12.277Z,39.75
2023-01-23T15:03:43.684Z,52.00
2023-01-23T15:06:16.851Z,50.90
2023-01-23T15:08:47.718Z,71.75
2023-01-23T15:11:16.184Z,49.25
2023-01-23T15:13:50.281Z,51.33
2023-01-23T15:16:24.334Z,40.20
2023-01-23T15:19:01.104Z,44.28
2023-01-23T15:21:39.410Z,39.42
2023-01-23T15:24:26.117Z,39.95
2023-01-23T15:27:04.957Z,40.40
2023-01-23T15:29:34.838Z,41.28
2023-01-23T15:32:03.338Z,46.58
2023-01-23T15:34:34.726Z,50.83
2023-01-23T15:37:08.371Z,51.25
2023-01-23T15:39:41.054Z,77.23
2023-01-23T15:42:29.089Z,61.90
2023-01-23T15:45:01.071Z,88.40
2023-01-23T15:47:31.187Z,100.97
2023-01-23T15:50:01.493Z,128.63
2023-01-23T15:52:32.451Z,87.63
2023-01-23T15:55:05.652Z,108.95
2023-01-23T15:57:33.861Z,169.50
2023-01-23T16:00:01.811Z,135.73
2023-01-23T16:02:54.784Z,149.88
2023-01-23T16:05:27.279Z,141.05
2023-01-23T16:07:56.983Z,147.18
2023-01-23T16:10:29.815Z,145.32
2023-01-23T16:12:59.473Z,130.10
2023-01-23T16:15:30.640Z,210.67
2023-01-23T16:17:58.565Z,168.57
2023-01-23T16:20:30.748Z,184.13
2023-01-23T16:23:14.074Z,150.48
2023-01-23T16:25:46.161Z,124.45
2023-01-23T16:28:15.408Z,157.60
2023-01-23T16:30:44.510Z,155.38
2023-01-23T16:33:13.078Z,145.80
2023-01-23T16:35:42.501Z,160.80
2023-01-23T16:38:21.790Z,169.50
2023-01-23T16:40:53.148Z,107.75
2023-01-23T16:43:22.481Z,213.18
2023-01-23T16:45:53.689Z,158.40
2023-01-23T16:48:27.461Z,194.68
2023-01-23T16:51:01.788Z,221.95
2023-01-23T16:53:33.866Z,218.98
2023-01-23T16:56:05.123Z,190.88
2023-01-23T16:58:39.261Z,186.88
2023-01-23T17:01:16.061Z,215.52
2023-01-23T17:03:45.671Z,199.02
2023-01-23T17:06:16.678Z,227.38
2023-01-23T17:08:44.958Z,207.55
2023-01-23T17:11:24.058Z,162.13
2023-01-23T17:13:59.450Z,210.98
2023-01-23T17:16:28.441Z,241.45
2023-01-23T17:18:59.760Z,209.45
2023-01-23T17:21:34.466Z,256.73
2023-01-23T17:24:02.835Z,230.20
2023-01-23T17:26:32.470Z,176.93
2023-01-23T17:29:00.613Z,288.50
2023-01-23T17:31:32.358Z,217.63
2023-01-23T17:34:01.251Z,259.17
2023-01-23T17:36:29.127Z,197.10
2023-01-23T17:39:00.132Z,293.95
2023-01-23T17:41:28.235Z,208.20
2023-01-23T17:43:57.420Z,223.43
2023-01-23T17:46:28.598Z,229.45
2023-01-23T17:48:57.784Z,219.80
2023-01-23T17:51:27.303Z,180.68
2023-01-23T17:53:55.256Z,201.10
2023-01-23T17:56:23.160Z,236.15
2023-01-23T17:58:51.088Z,280.42
2023-01-23T18:01:24.084Z,254.25
2023-01-23T18:03:53.960Z,293.95
2023-01-23T18:06:21.887Z,162.85
2023-01-23T18:08:49.793Z,338.38
2023-01-23T18:11:21.524Z,284.48
2023-01-23T18:14:15.221Z,205.05
2023-01-23T18:16:47.993Z,224.23
2023-01-23T18:19:19.742Z,249.57
2023-01-23T18:21:51.433Z,303.55
2023-01-23T18:24:27.369Z,269.48
2023-01-23T18:27:02.061Z,312.55
2023-01-23T18:29:48.482Z,241.73
2023-01-23T18:32:54.417Z,409.75
2023-01-23T18:35:38.540Z,264.15
2023-01-23T18:38:19.649Z,246.70
2023-01-23T18:41:10.692Z,382.48
2023-01-23T18:43:40.877Z,204.18
2023-01-23T18:46:15.252Z,237.82
2023-01-23T18:48:47.852Z,170.07
2023-01-23T18:51:33.441Z,320.92
2023-01-23T18:54:18.755Z,348.83
2023-01-23T18:57:05.502Z,257.40
2023-01-23T18:59:49.254Z,204.85
2023-01-23T19:02:30.511Z,220.07
2023-01-23T19:05:29.716Z,314.42
2023-01-23T19:07:59.756Z,169.27
2023-01-23T19:10:40.145Z,325.77
2023-01-23T19:13:21.283Z,247.48
2023-01-23T19:16:01.889Z,346.98
2023-01-23T19:18:46.211Z,198.23
2023-01-23T19:21:22.991Z,218.50
2023-01-23T19:23:59.293Z,309.27
2023-01-23T19:26:29.794Z,252.52
2023-01-23T19:29:01.551Z,326.15
2023-01-23T19:31:32.781Z,160.73
2023-01-23T19:34:02.555Z,167.75
2023-01-23T19:36:35.006Z,276.65
2023-01-23T19:39:06.614Z,163.95
2023-01-23T19:41:42.806Z,126.88
2023-01-23T19:44:16.333Z,134.65
2023-01-23T19:46:44.784Z,175.05
2023-01-23T19:49:13.673Z,109.63
2023-01-23T19:51:44.202Z,90.57
2023-01-23T19:54:14.012Z,92.75
2023-01-23T19:56:42.672Z,90.40
2023-01-23T19:59:16.362Z,68.60
2023-01-23T20:01:48.606Z,70.50
2023-01-23T20:04:20.527Z,64.65
2023-01-23T20:06:51.747Z,61.47
2023-01-23T20:09:20.525Z,62.97
2023-01-23T20:11:48.968Z,56.53
2023-01-23T20:14:17.015Z,55.80
2023-01-23T20:16:44.940Z,55.40
2023-01-23T20:19:15.310Z,55.47
2023-01-23T20:21:44.091Z,56.00
2023-01-23T20:24:14.014Z,59.92
2023-01-23T20:26:42.431Z,62.83
2023-01-23T20:29:12.242Z,56.17
2023-01-23T20:31:40.306Z,54.85
2023-01-23T20:34:08.262Z,51.93
2023-01-23T20:36:36.143Z,58.47
2023-01-23T20:39:05.195Z,58.97
2023-01-23T20:41:34.510Z,55.20
2023-01-23T20:44:02.692Z,55.97
2023-01-23T20:46:30.849Z,55.03
2023-01-23T20:48:59.633Z,54.97
2023-01-23T20:51:27.530Z,50.40
2023-01-23T20:53:54.730Z,48.03
2023-01-23T20:56:27.355Z,51.38
2023-01-23T20:59:15.864Z,53.10
2023-01-23T21:02:02.223Z,53.28
2023-01-23T21:04:33.972Z,53.47
2023-01-23T21:07:03.035Z,55.42
2023-01-23T21:09:31.388Z,59.95
2023-01-23T21:12:00.710Z,53.58
2023-01-23T21:14:30.900Z,54.60
2023-01-23T21:16:59.072Z,63.72
2023-01-23T21:19:30.238Z,93.82
2023-01-23T21:21:58.470Z,71.45
2023-01-23T21:24:27.355Z,73.43
2023-01-23T21:26:55.402Z,84.03
2023-01-23T21:29:23.283Z,59.17
2023-01-23T21:31:52.524Z,57.97
2023-01-23T21:34:20.742Z,55.53
2023-01-23T21:36:48.738Z,65.97
2023-01-23T21:39:17.689Z,65.35
2023-01-23T21:41:45.718Z,64.32
2023-01-23T21:44:14.637Z,55.40
2023-01-23T21:46:42.843Z,57.53
2023-01-23T21:49:12.308Z,58.55
2023-01-23T21:51:40.710Z,52.70
2023-01-23T21:54:08.667Z,57.47
2023-01-23T21:56:37.376Z,56.47
2023-01-23T21:59:05.574Z,61.40
2023-01-23T22:01:33.133Z,56.10
2023-01-23T22:04:04.365Z,52.75
2023-01-23T22:06:35.183Z,58.17
2023-01-23T22:09:07.509Z,50.97
2023-01-23T22:11:36.441Z,58.40
2023-01-23T22:14:05.224Z,55.65
2023-01-23T22:16:47.940Z,54.05
2023-01-23T22:19:20.684Z,54.40
2023-01-23T22:21:51.329Z,51.50
2023-01-23T22:24:19.470Z,54.03
2023-01-23T22:26:47.387Z,52.03
2023-01-23T22:29:22.779Z,51.13
2023-01-23T22:31:51.202Z,50.83
2023-01-23T22:34:19.167Z,56.22
2023-01-23T22:36:47.069Z,53.42
2023-01-23T22:39:16.807Z,53.55
2023-01-23T22:41:45.787Z,52.42
2023-01-23T22:44:14.787Z,52.25
2023-01-23T22:46:42.810Z,53.05
2023-01-23T22:49:11.210Z,47.92
2023-01-23T22:51:39.115Z,47.97
2023-01-23T22:54:07.051Z,47.53
2023-01-23T22:56:36.317Z,52.20
2023-01-23T22:59:04.348Z,47.33
2023-01-23T23:01:32.628Z,50.35
2023-01-23T23:04:01.518Z,55.22
2023-01-23T23:06:29.889Z,52.53
2023-01-23T23:08:57.786Z,57.60
2023-01-23T23:11:28.787Z,50.13
2023-01-23T23:13:58.969Z,48.90
2023-01-23T23:16:30.926Z,54.92
2023-01-23T23:19:02.750Z,51.47
2023-01-23T23:21:35.602Z,50.53
2023-01-23T23:24:06.122Z,53.85
2023-01-23T23:26:35.035Z,53.30
2023-01-23T23:29:05.151Z,53.38
2023-01-23T23:31:33.900Z,49.60
2023-01-23T23:34:02.099Z,52.63
2023-01-23T23:36:30.035Z,52.88
2023-01-23T23:38:58.186Z,50.53
2023-01-23T23:41:26.333Z,50.20
2023-01-23T23:43:54.536Z,46.78
2023-01-23T23:46:23.816Z,56.55
2023-01-23T23:48:51.723Z,52.30
2023-01-23T23:51:22.758Z,53.00
2023-01-23T23:53:51.273Z,48.90
2023-01-23T23:56:22.996Z,43.60
2023-01-23T23:58:51.764Z,49.42
